• Join FlightAware (Why Join?)
  • Login
  • US Flag 
02:49AM EDT


 

Airport Tracker/Info


-or-


 

Live Flight TrackerFlight Track Log ✈ ASQ5678 ✈ 06-May-2013 ✈ KMKE - KIAH

Flight Track Log - Related Links

Times and Time Zones

All times are in EDT time to prevent confusion due to time zone crossing. See the ASQ5678 flight status page for this flight to view local times or setup timezone preferences in your user account.

Time Position Orientation Groundspeed Altitude Reporting Facility
EDT Latitude Longitude Course Direction KTS MPH feet Rate Location/Type
08:51AM 42.9525 -87.8578 180° South 171 197 1,900  Level Chicago Center
08:52AM 42.9219 -87.8200 138° Southeast 229 264 3,800 2,100 Climbing Chicago Center
08:53AM 42.8761 -87.9050 234° Southwest 244 281 6,300 2,400 Climbing Chicago Center
08:54AM 42.6570 -88.0986 180° South  Level Estimated
08:54AM 42.8339 -87.9922 237° Southwest 268 308 8,800  Level Chicago Center
08:55AM 42.5603 -88.1654 180° South  Level Estimated
08:55AM 42.7661 -88.0242 199° South 272 313 11,300  Level Chicago Center
08:56AM 42.4636 -88.2320 185° South  Level Estimated
08:56AM 42.6850 -88.0247 180° South 288 331 13,400  Level Chicago Center
08:57AM 42.3668 -88.2983 180° South  Level Estimated
08:58AM 42.6003 -88.0242 180° South 300 345 15,200  Level Chicago Center
08:59AM 42.5114 -88.0228 179° South 316 364 17,000 1,740 Climbing Chicago Center
09:01AM 42.3083 -88.0228 180° South 338 389 20,600 1,620 Climbing Chicago Center
09:02AM 42.2131 -88.0228 180° South 343 395 22,100 1,500 Climbing Chicago Center
09:03AM 42.1144 -88.0217 180° South 354 407 23,700 1,500 Climbing Chicago Center
09:04AM 42.0158 -88.0219 180° South 356 410 25,200 1,440 Climbing Chicago Center
09:05AM 41.9167 -88.0206 179° South 357 411 26,700 1,500 Climbing Chicago Center
09:07AM 41.7306 -88.0425 185° South 361 415 29,400 1,500 Climbing Kansas City Center
09:07AM 41.7003 -88.0456 184° South 354 407 29,900 1,380 Climbing Chicago Center
09:08AM 41.6042 -88.0558 185° South 348 400 31,300 1,320 Climbing Chicago Center
09:09AM 41.5008 -88.0667 184° South 345 397 32,700 1,080 Climbing Chicago Center
09:11AM 41.3481 -88.0831 185° South 340 391 34,300 960 Climbing Kansas City Center
09:11AM 41.3103 -88.0881 186° South 343 395 34,700 480 Climbing Chicago Center
09:12AM 41.2219 -88.1392 204° Southwest 356 410 35,000 180 Climbing Chicago Center
09:13AM 41.1283 -88.2036 207° Southwest 373 429 35,100 480 Climbing Chicago Center
09:14AM 41.0139 -88.2803 207° Southwest 383 441 36,000 420 Climbing Chicago Center
09:15AM 40.9178 -88.3461 207° Southwest 389 448 36,000  Level Chicago Center
09:16AM 40.8161 -88.4147 207° Southwest 407 468 36,000  Level Chicago Center
09:18AM 40.6375 -88.5344 207° Southwest 431 496 36,000  Level Kansas City Center
09:18AM 40.6014 -88.5597 208° Southwest 437 503 36,000  Level Chicago Center
09:20AM 40.3656 -88.6961 204° Southwest 451 519 36,000  Level Chicago Center
09:21AM 40.2503 -88.7569 202° Southwest 446 513 36,000  Level Chicago Center
09:23AM 40.0397 -88.8692 202° Southwest 447 514 36,000  Level Kansas City Center
09:25AM 39.7633 -89.0136 202° Southwest 450 518 36,000  Level Chicago Center
09:26AM 39.6917 -89.0525 203° Southwest 449 517 36,000  Level Kansas City Center
09:27AM 39.5731 -89.1117 201° Southwest 453 521 36,000  Level Kansas City Center
09:28AM 39.4539 -89.1750 202° Southwest 459 528 36,000  Level Kansas City Center
09:29AM 39.3147 -89.2472 202° Southwest 463 533 36,000  Level Kansas City Center
09:30AM 39.1942 -89.3094 202° Southwest 466 536 36,000  Level Kansas City Center
09:32AM 38.9400 -89.4406 202° Southwest 469 540 36,000  Level Kansas City Center
09:33AM 38.8194 -89.5022 202° Southwest 467 537 36,000  Level Kansas City Center
09:34AM 38.6978 -89.5647 202° Southwest 470 541 36,000  Level Kansas City Center
09:35AM 38.5664 -89.6317 202° Southwest 470 541 36,000  Level Kansas City Center
09:36AM 38.4639 -89.6817 201° Southwest 474 545 36,000  Level Kansas City Center
09:38AM 38.1922 -89.8172 201° Southwest 474 545 36,000  Level Kansas City Center
09:39AM 38.0611 -89.8831 202° Southwest 479 551 36,000  Level Kansas City Center
09:40AM 37.9389 -89.9433 201° Southwest 475 547 36,000  Level Kansas City Center
09:43AM 37.7198 -90.0449 200° South  Level FlightAware Approximate
09:43AM 37.5900 -90.1239 200° South 476 548 36,000  Level Memphis Center
09:44AM 37.4692 -90.1844 202° Southwest 476 548 36,000  Level Memphis Center
09:45AM 37.4506 -90.1878 188° South 478 550 36,000  Level Kansas City Center
09:45AM 37.3422 -90.2447 203° Southwest 476 548 36,000  Level Memphis Center
09:46AM 37.2194 -90.3047 201° Southwest 481 554 36,000  Level Memphis Center
09:47AM 37.0964 -90.3647 201° Southwest 476 548 36,000  Level Memphis Center
09:49AM 36.8486 -90.4839 201° Southwest 476 548 36,000  Level Memphis Center
09:50AM 36.7233 -90.5433 201° Southwest 476 548 36,000  Level Memphis Center
09:52AM 36.5891 -90.6049 200° South  Level FlightAware Approximate
09:53AM 36.4050 -90.6894 200° South 481 554 36,000  Level Kansas City Center
09:53AM 36.3500 -90.7178 203° Southwest 476 548 36,000  Level Memphis Center
09:55AM 36.1553 -90.8083 201° Southwest 481 554 36,000  Level Kansas City Center
09:55AM 36.0972 -90.8375 202° Southwest 476 548 36,000  Level Memphis Center
09:56AM 35.9697 -90.8878 198° South 481 554 36,000  Level Memphis Center
09:58AM 35.8500 -90.9844 213° Southwest  Level Estimated
09:59AM 35.8470 -90.9416 200° South  Level FlightAware Approximate
09:59AM 35.5944 -90.9264 202° Southwest 463 533 36,000  Level Memphis Center
10:00AM 35.4731 -90.9867 202° Southwest 458 527 36,000  Level Memphis Center
10:01AM 35.3581 -91.0469 203° Southwest 464 534 36,000  Level Memphis Center
10:02AM 35.2347 -91.1094 202° Southwest 472 543 36,000  Level Memphis Center
10:03AM 35.1175 -91.1669 202° Southwest 472 543 36,000  Level Memphis Center
10:04AM 34.9961 -91.2267 202° Southwest 472 543 36,000  Level Memphis Center
10:05AM 35.1385 -91.1892 202° Southwest  Level FlightAware Approximate
10:05AM 34.8744 -91.2886 203° Southwest 467 537 36,000  Level Memphis Center
10:06AM 34.7531 -91.3506 203° Southwest 474 545 36,000  Level Memphis Center
10:08AM 34.6112 -91.3861 202° Southwest  Level FlightAware Approximate
10:08AM 34.4975 -91.4761 202° Southwest 474 545 36,000  Level Memphis Center
10:09AM 34.3781 -91.5322 201° Southwest 474 545 36,000  Level Memphis Center
10:10AM 34.2564 -91.5911 202° Southwest 474 545 36,000  Level Memphis Center
10:11AM 34.1347 -91.6494 202° Southwest 468 539 36,000  Level Memphis Center
10:14AM 33.9838 -91.6915 203° Southwest  Level FlightAware Approximate
10:14AM 33.7981 -91.8150 203° Southwest 464 534 36,000  Level Fort Worth Center
10:16AM 33.6474 -91.8596 203° Southwest  Level FlightAware Approximate
10:16AM 33.5672 -91.9269 203° Southwest 464 534 36,000  Level Fort Worth Center
10:18AM 33.4199 -91.9766 196° South  Level FlightAware Approximate
10:19AM 33.2197 -92.0925 202° Southwest 451 519 36,000  Level Fort Worth Center
10:21AM 33.1049 -92.2133 221° Southwest  Level Estimated
10:21AM 32.9883 -92.2003 221° Southwest 446 513 36,000  Level Fort Worth Center
10:23AM 32.8457 -92.2663 201° Southwest  Level FlightAware Approximate
10:23AM 32.7542 -92.3100 201° Southwest 448 516 36,000  Level Houston Center
10:25AM 32.6827 -92.3304 202° Southwest  Level FlightAware Approximate
10:25AM 32.6097 -92.3669 202° Southwest  Level FlightAware Approximate
10:25AM 32.5133 -92.4264 202° Southwest 446 513 36,000  Level Houston Center
10:26AM 32.3978 -92.4800 201° Southwest 447 514 36,000  Level Houston Center
10:28AM 32.2726 -92.5335 200° South  Level FlightAware Approximate
10:28AM 32.1453 -92.5994 200° South 448 516 36,000  Level Houston Center
10:29AM 32.0306 -92.6514 201° Southwest 445 512 36,000  Level Houston Center
10:31AM 31.9238 -92.7086 220° Southwest  Level FlightAware Approximate
10:36AM 31.4650 -93.1678 217° Southwest 414 476 36,000  Level Houston Center
10:38AM 31.3170 -93.2980 218° Southwest  Level FlightAware Approximate
10:38AM 31.2819 -93.3425 219° Southwest 417 480 36,000  Level Houston Center
10:39AM 31.2277 -93.3781 218° Southwest  Level FlightAware Approximate
10:40AM 31.1384 -93.4581 217° Southwest  Level FlightAware Approximate
10:40AM 31.0394 -93.4372 199° South 460 529 35,000  Level Houston Center
10:41AM 31.0490 -93.5379 217° Southwest  Level FlightAware Approximate
10:41AM 30.9081 -93.4458 183° South 470 541 32,900  Level Houston Center
10:42AM 30.7928 -93.4942 200° South 446 513 30,500 -2,520 Descending Houston Center
10:44AM 30.6483 -93.6992 231° Southwest 416 479 25,100 -2,640 Descending Houston Center
10:46AM 30.5709 -93.8945 245° Southwest  Level Estimated
10:47AM 30.4236 -94.0317 245° Southwest 380 437 16,900  Level Houston Center
10:48AM 30.3667 -94.1144 231° Southwest 370 426 15,100 -2,040 Descending Houston Center
10:49AM 30.3008 -94.2131 232° Southwest 368 423 13,000 -1,440 Descending Houston Center
10:50AM 30.2331 -94.3128 232° Southwest 359 413 12,000 -720 Descending Houston Center
10:51AM 30.1847 -94.3978 237° Southwest 319 367 11,600 -1,020 Descending Houston Center
10:53AM 30.2251 -94.7544 245° Southwest  Level Estimated
10:53AM 30.1464 -94.5695 263° West  Level FlightAware Approximate
10:53AM 30.1200 -94.5731 263° West 274 315 9,000  Level Houston Center
10:54AM 30.0847 -94.6681 247° West 276 318 8,000 -660 Descending Houston Center
10:56AM 30.1057 -94.8656 259° West  Level FlightAware Approximate
10:56AM 30.0283 -94.8214 259° West 268 308 7,000  Level Houston Center
10:57AM 30.0022 -94.8994 249° West 269 310 7,000 -420 Level Houston Center
10:58AM 29.9942 -94.9836 264° West 237 273 6,100 -1,080 Descending Houston Center
10:59AM 29.9922 -95.0600 268° West 226 260 4,700 -1,380 Descending Houston Center
11:00AM 29.9939 -95.1386 271° West 219 252 3,300 -1,200 Descending Houston Center
11:01AM 29.9933 -95.1853 269° West 199 229 2,600 -960 Descending Houston Center
11:03AM 29.9936 -95.2589 270° West 195 224 1,300 -900 Descending Houston Center
11:04AM 29.9942 -95.3036 271° West 167 192 500 -780 Descending Houston Center